sensor_id;sensor_type;location;lat;lon;timestamp;P1;durP1;ratioP1;P2;durP2;ratioP2
62903;SDS011;49000;50.698;13.322;2023-07-24T00:00:13;3.87;;;2.73;;
62903;SDS011;49000;50.698;13.322;2023-07-24T00:02:39;3.23;;;2.50;;
62903;SDS011;49000;50.698;13.322;2023-07-24T00:05:05;2.90;;;2.50;;
62903;SDS011;49000;50.698;13.322;2023-07-24T00:07:31;3.60;;;2.70;;
62903;SDS011;49000;50.698;13.322;2023-07-24T00:09:56;3.20;;;2.60;;
62903;SDS011;49000;50.698;13.322;2023-07-24T00:12:22;4.07;;;2.60;;
62903;SDS011;49000;50.698;13.322;2023-07-24T00:14:47;4.10;;;2.87;;
62903;SDS011;49000;50.698;13.322;2023-07-24T00:17:13;3.80;;;2.97;;
62903;SDS011;49000;50.698;13.322;2023-07-24T00:19:38;3.60;;;2.60;;
62903;SDS011;49000;50.698;13.322;2023-07-24T00:22:04;3.80;;;2.70;;
62903;SDS011;49000;50.698;13.322;2023-07-24T00:24:31;3.70;;;2.40;;
62903;SDS011;49000;50.698;13.322;2023-07-24T00:26:57;3.60;;;2.33;;
62903;SDS011;49000;50.698;13.322;2023-07-24T00:29:22;3.93;;;2.60;;
62903;SDS011;49000;50.698;13.322;2023-07-24T00:31:48;4.00;;;2.80;;
62903;SDS011;49000;50.698;13.322;2023-07-24T00:34:13;5.20;;;2.63;;
62903;SDS011;49000;50.698;13.322;2023-07-24T00:36:39;3.70;;;3.07;;
62903;SDS011;49000;50.698;13.322;2023-07-24T00:39:04;3.47;;;2.67;;
62903;SDS011;49000;50.698;13.322;2023-07-24T00:41:30;3.50;;;2.93;;
62903;SDS011;49000;50.698;13.322;2023-07-24T00:43:55;3.57;;;2.80;;
62903;SDS011;49000;50.698;13.322;2023-07-24T00:46:21;4.40;;;2.80;;
62903;SDS011;49000;50.698;13.322;2023-07-24T00:48:47;4.00;;;2.83;;
62903;SDS011;49000;50.698;13.322;2023-07-24T00:51:12;3.33;;;2.80;;
62903;SDS011;49000;50.698;13.322;2023-07-24T00:53:38;3.70;;;2.70;;
62903;SDS011;49000;50.698;13.322;2023-07-24T00:56:04;3.83;;;2.73;;
62903;SDS011;49000;50.698;13.322;2023-07-24T00:58:30;2.43;;;2.23;;
62903;SDS011;49000;50.698;13.322;2023-07-24T01:00:56;3.43;;;2.50;;
62903;SDS011;49000;50.698;13.322;2023-07-24T01:03:22;4.33;;;2.80;;
62903;SDS011;49000;50.698;13.322;2023-07-24T01:05:56;3.93;;;2.60;;
62903;SDS011;49000;50.698;13.322;2023-07-24T01:08:21;3.33;;;2.67;;
62903;SDS011;49000;50.698;13.322;2023-07-24T01:10:48;4.20;;;2.80;;
62903;SDS011;49000;50.698;13.322;2023-07-24T01:13:18;2.67;;;2.33;;
62903;SDS011;49000;50.698;13.322;2023-07-24T01:15:54;3.00;;;2.47;;
62903;SDS011;49000;50.698;13.322;2023-07-24T01:18:31;4.10;;;2.80;;
62903;SDS011;49000;50.698;13.322;2023-07-24T01:20:58;3.17;;;2.50;;
62903;SDS011;49000;50.698;13.322;2023-07-24T01:26:03;3.40;;;2.50;;
62903;SDS011;49000;50.698;13.322;2023-07-24T01:28:30;3.20;;;2.50;;
62903;SDS011;49000;50.698;13.322;2023-07-24T01:30:55;4.17;;;2.70;;
62903;SDS011;49000;50.698;13.322;2023-07-24T01:33:22;3.67;;;2.70;;
62903;SDS011;49000;50.698;13.322;2023-07-24T01:35:49;3.20;;;2.43;;
62903;SDS011;49000;50.698;13.322;2023-07-24T01:38:17;4.00;;;2.60;;
62903;SDS011;49000;50.698;13.322;2023-07-24T01:40:43;4.40;;;2.90;;
62903;SDS011;49000;50.698;13.322;2023-07-24T01:43:10;3.67;;;2.60;;
62903;SDS011;49000;50.698;13.322;2023-07-24T01:45:35;3.80;;;3.10;;
62903;SDS011;49000;50.698;13.322;2023-07-24T01:48:04;3.60;;;2.90;;
62903;SDS011;49000;50.698;13.322;2023-07-24T01:50:30;3.93;;;2.87;;
62903;SDS011;49000;50.698;13.322;2023-07-24T01:52:56;4.00;;;2.97;;
62903;SDS011;49000;50.698;13.322;2023-07-24T01:55:21;3.37;;;2.73;;
62903;SDS011;49000;50.698;13.322;2023-07-24T01:57:47;5.37;;;2.80;;
62903;SDS011;49000;50.698;13.322;2023-07-24T02:00:12;4.83;;;3.00;;
62903;SDS011;49000;50.698;13.322;2023-07-24T02:02:38;4.60;;;2.70;;
62903;SDS011;49000;50.698;13.322;2023-07-24T02:05:04;3.53;;;2.40;;
62903;SDS011;49000;50.698;13.322;2023-07-24T02:07:29;2.90;;;2.37;;
62903;SDS011;49000;50.698;13.322;2023-07-24T02:09:55;4.13;;;3.10;;
62903;SDS011;49000;50.698;13.322;2023-07-24T02:12:20;4.00;;;3.00;;
62903;SDS011;49000;50.698;13.322;2023-07-24T02:14:46;4.17;;;2.60;;
62903;SDS011;49000;50.698;13.322;2023-07-24T02:17:16;3.10;;;2.50;;
62903;SDS011;49000;50.698;13.322;2023-07-24T02:19:42;4.20;;;3.13;;
62903;SDS011;49000;50.698;13.322;2023-07-24T02:22:08;3.10;;;2.40;;
62903;SDS011;49000;50.698;13.322;2023-07-24T02:24:33;4.23;;;2.90;;
62903;SDS011;49000;50.698;13.322;2023-07-24T02:26:59;2.83;;;2.47;;
62903;SDS011;49000;50.698;13.322;2023-07-24T02:29:25;3.53;;;2.50;;
62903;SDS011;49000;50.698;13.322;2023-07-24T02:31:53;3.93;;;2.77;;
62903;SDS011;49000;50.698;13.322;2023-07-24T02:34:19;5.17;;;3.30;;
62903;SDS011;49000;50.698;13.322;2023-07-24T02:36:49;3.47;;;2.97;;
62903;SDS011;49000;50.698;13.322;2023-07-24T02:39:14;5.00;;;3.20;;
62903;SDS011;49000;50.698;13.322;2023-07-24T02:41:40;4.87;;;3.10;;
62903;SDS011;49000;50.698;13.322;2023-07-24T02:44:06;3.47;;;2.87;;
62903;SDS011;49000;50.698;13.322;2023-07-24T02:46:31;5.27;;;3.20;;
62903;SDS011;49000;50.698;13.322;2023-07-24T02:48:56;4.27;;;3.10;;
62903;SDS011;49000;50.698;13.322;2023-07-24T02:51:22;4.83;;;3.20;;
62903;SDS011;49000;50.698;13.322;2023-07-24T02:53:47;3.83;;;3.07;;
62903;SDS011;49000;50.698;13.322;2023-07-24T02:56:13;4.50;;;2.80;;
62903;SDS011;49000;50.698;13.322;2023-07-24T02:58:38;5.13;;;3.27;;
62903;SDS011;49000;50.698;13.322;2023-07-24T03:01:04;5.00;;;3.33;;
62903;SDS011;49000;50.698;13.322;2023-07-24T03:03:31;4.90;;;3.13;;
62903;SDS011;49000;50.698;13.322;2023-07-24T03:05:57;4.97;;;3.30;;
62903;SDS011;49000;50.698;13.322;2023-07-24T03:08:23;5.50;;;3.67;;
62903;SDS011;49000;50.698;13.322;2023-07-24T03:10:48;4.60;;;3.23;;
62903;SDS011;49000;50.698;13.322;2023-07-24T03:13:14;4.90;;;3.30;;
62903;SDS011;49000;50.698;13.322;2023-07-24T03:15:39;4.50;;;2.80;;
62903;SDS011;49000;50.698;13.322;2023-07-24T03:18:05;3.97;;;3.00;;
62903;SDS011;49000;50.698;13.322;2023-07-24T03:20:30;4.67;;;3.30;;
62903;SDS011;49000;50.698;13.322;2023-07-24T03:22:56;3.00;;;2.33;;
62903;SDS011;49000;50.698;13.322;2023-07-24T03:25:21;3.47;;;2.87;;
62903;SDS011;49000;50.698;13.322;2023-07-24T03:27:47;6.63;;;3.03;;
62903;SDS011;49000;50.698;13.322;2023-07-24T03:30:13;4.90;;;2.90;;
62903;SDS011;49000;50.698;13.322;2023-07-24T03:32:38;4.10;;;2.93;;
62903;SDS011;49000;50.698;13.322;2023-07-24T03:35:04;4.67;;;2.40;;
62903;SDS011;49000;50.698;13.322;2023-07-24T03:37:31;4.70;;;3.40;;
62903;SDS011;49000;50.698;13.322;2023-07-24T03:39:58;4.33;;;3.13;;
62903;SDS011;49000;50.698;13.322;2023-07-24T03:42:24;4.83;;;3.00;;
62903;SDS011;49000;50.698;13.322;2023-07-24T03:44:51;4.57;;;3.10;;
62903;SDS011;49000;50.698;13.322;2023-07-24T03:47:17;3.73;;;2.97;;
62903;SDS011;49000;50.698;13.322;2023-07-24T03:49:42;3.30;;;2.60;;
62903;SDS011;49000;50.698;13.322;2023-07-24T03:52:08;3.47;;;2.63;;
62903;SDS011;49000;50.698;13.322;2023-07-24T03:54:33;3.60;;;2.93;;
62903;SDS011;49000;50.698;13.322;2023-07-24T03:56:59;3.70;;;2.90;;
62903;SDS011;49000;50.698;13.322;2023-07-24T03:59:24;4.83;;;3.10;;
62903;SDS011;49000;50.698;13.322;2023-07-24T04:01:50;5.53;;;3.17;;
62903;SDS011;49000;50.698;13.322;2023-07-24T04:04:15;4.23;;;3.10;;
62903;SDS011;49000;50.698;13.322;2023-07-24T04:06:41;4.53;;;3.20;;
62903;SDS011;49000;50.698;13.322;2023-07-24T04:09:06;4.37;;;3.03;;
62903;SDS011;49000;50.698;13.322;2023-07-24T04:11:32;5.50;;;2.93;;
62903;SDS011;49000;50.698;13.322;2023-07-24T04:13:57;4.40;;;3.20;;
62903;SDS011;49000;50.698;13.322;2023-07-24T04:16:23;4.73;;;3.10;;
62903;SDS011;49000;50.698;13.322;2023-07-24T04:18:48;4.53;;;3.20;;
62903;SDS011;49000;50.698;13.322;2023-07-24T04:21:14;4.50;;;3.10;;
62903;SDS011;49000;50.698;13.322;2023-07-24T04:23:39;5.03;;;3.60;;
62903;SDS011;49000;50.698;13.322;2023-07-24T04:26:05;4.07;;;2.93;;
62903;SDS011;49000;50.698;13.322;2023-07-24T04:28:30;3.97;;;3.00;;
62903;SDS011;49000;50.698;13.322;2023-07-24T04:30:59;16.00;;;3.57;;
62903;SDS011;49000;50.698;13.322;2023-07-24T04:33:26;7.13;;;3.70;;
62903;SDS011;49000;50.698;13.322;2023-07-24T04:35:52;4.47;;;2.97;;
62903;SDS011;49000;50.698;13.322;2023-07-24T04:38:19;4.03;;;3.30;;
62903;SDS011;49000;50.698;13.322;2023-07-24T04:40:44;6.23;;;3.53;;
62903;SDS011;49000;50.698;13.322;2023-07-24T04:43:10;5.20;;;3.63;;
62903;SDS011;49000;50.698;13.322;2023-07-24T04:45:35;6.10;;;3.63;;
62903;SDS011;49000;50.698;13.322;2023-07-24T04:48:01;4.67;;;3.10;;
62903;SDS011;49000;50.698;13.322;2023-07-24T04:50:27;6.20;;;3.43;;
62903;SDS011;49000;50.698;13.322;2023-07-24T04:52:52;4.30;;;3.03;;
62903;SDS011;49000;50.698;13.322;2023-07-24T04:55:17;4.10;;;3.10;;
62903;SDS011;49000;50.698;13.322;2023-07-24T04:57:43;5.77;;;3.90;;
62903;SDS011;49000;50.698;13.322;2023-07-24T05:00:09;6.37;;;3.80;;
62903;SDS011;49000;50.698;13.322;2023-07-24T05:02:35;4.93;;;3.10;;
62903;SDS011;49000;50.698;13.322;2023-07-24T05:05:00;4.33;;;3.30;;
62903;SDS011;49000;50.698;13.322;2023-07-24T05:07:26;5.07;;;3.17;;
62903;SDS011;49000;50.698;13.322;2023-07-24T05:09:52;6.03;;;3.60;;
62903;SDS011;49000;50.698;13.322;2023-07-24T05:12:17;6.53;;;3.53;;
62903;SDS011;49000;50.698;13.322;2023-07-24T05:14:43;5.13;;;3.40;;
62903;SDS011;49000;50.698;13.322;2023-07-24T05:17:08;4.53;;;3.60;;
62903;SDS011;49000;50.698;13.322;2023-07-24T05:19:34;6.27;;;4.20;;
62903;SDS011;49000;50.698;13.322;2023-07-24T05:21:59;8.27;;;4.73;;
62903;SDS011;49000;50.698;13.322;2023-07-24T05:24:25;6.68;;;4.60;;
62903;SDS011;49000;50.698;13.322;2023-07-24T05:26:50;9.05;;;3.80;;
62903;SDS011;49000;50.698;13.322;2023-07-24T05:29:16;6.15;;;4.13;;
62903;SDS011;49000;50.698;13.322;2023-07-24T05:31:41;8.00;;;4.55;;
62903;SDS011;49000;50.698;13.322;2023-07-24T05:34:07;5.87;;;3.97;;
62903;SDS011;49000;50.698;13.322;2023-07-24T05:36:33;5.15;;;3.40;;
62903;SDS011;49000;50.698;13.322;2023-07-24T05:38:58;5.43;;;3.78;;
62903;SDS011;49000;50.698;13.322;2023-07-24T05:41:24;4.75;;;3.38;;
62903;SDS011;49000;50.698;13.322;2023-07-24T05:43:49;5.03;;;3.85;;
62903;SDS011;49000;50.698;13.322;2023-07-24T05:46:15;6.32;;;3.55;;
62903;SDS011;49000;50.698;13.322;2023-07-24T05:48:40;4.85;;;3.47;;
62903;SDS011;49000;50.698;13.322;2023-07-24T05:51:06;5.47;;;3.50;;
62903;SDS011;49000;50.698;13.322;2023-07-24T05:53:31;5.43;;;3.50;;
62903;SDS011;49000;50.698;13.322;2023-07-24T05:56:00;5.32;;;3.72;;
62903;SDS011;49000;50.698;13.322;2023-07-24T05:58:27;4.60;;;3.58;;
62903;SDS011;49000;50.698;13.322;2023-07-24T06:00:53;4.97;;;3.25;;
62903;SDS011;49000;50.698;13.322;2023-07-24T06:03:19;5.45;;;3.08;;
62903;SDS011;49000;50.698;13.322;2023-07-24T06:05:45;4.72;;;3.70;;
62903;SDS011;49000;50.698;13.322;2023-07-24T06:08:10;4.55;;;3.42;;
62903;SDS011;49000;50.698;13.322;2023-07-24T06:10:36;4.35;;;3.33;;
62903;SDS011;49000;50.698;13.322;2023-07-24T06:13:02;4.53;;;3.10;;
62903;SDS011;49000;50.698;13.322;2023-07-24T06:15:28;5.57;;;3.90;;
62903;SDS011;49000;50.698;13.322;2023-07-24T06:17:53;4.78;;;3.25;;
62903;SDS011;49000;50.698;13.322;2023-07-24T06:20:19;3.40;;;2.97;;
62903;SDS011;49000;50.698;13.322;2023-07-24T06:22:44;4.60;;;3.38;;
62903;SDS011;49000;50.698;13.322;2023-07-24T06:25:10;4.65;;;3.53;;
62903;SDS011;49000;50.698;13.322;2023-07-24T06:27:35;6.65;;;4.18;;
62903;SDS011;49000;50.698;13.322;2023-07-24T06:30:01;5.93;;;4.15;;
62903;SDS011;49000;50.698;13.322;2023-07-24T06:32:26;6.38;;;4.03;;
62903;SDS011;49000;50.698;13.322;2023-07-24T06:34:52;6.40;;;4.13;;
62903;SDS011;49000;50.698;13.322;2023-07-24T06:37:18;5.70;;;4.32;;
62903;SDS011;49000;50.698;13.322;2023-07-24T06:39:43;5.13;;;3.70;;
62903;SDS011;49000;50.698;13.322;2023-07-24T06:42:08;5.68;;;4.47;;
62903;SDS011;49000;50.698;13.322;2023-07-24T06:44:34;6.75;;;4.50;;
62903;SDS011;49000;50.698;13.322;2023-07-24T06:46:59;5.00;;;3.80;;
62903;SDS011;49000;50.698;13.322;2023-07-24T06:49:25;4.22;;;3.53;;
62903;SDS011;49000;50.698;13.322;2023-07-24T06:51:50;4.93;;;3.88;;
62903;SDS011;49000;50.698;13.322;2023-07-24T06:54:16;6.47;;;4.57;;
62903;SDS011;49000;50.698;13.322;2023-07-24T06:56:41;5.22;;;4.03;;
62903;SDS011;49000;50.698;13.322;2023-07-24T06:59:07;5.00;;;3.90;;
62903;SDS011;49000;50.698;13.322;2023-07-24T07:01:32;4.93;;;4.13;;
62903;SDS011;49000;50.698;13.322;2023-07-24T07:03:58;6.95;;;4.60;;
62903;SDS011;49000;50.698;13.322;2023-07-24T07:06:23;6.13;;;4.45;;
62903;SDS011;49000;50.698;13.322;2023-07-24T07:08:49;25.20;;;9.75;;
62903;SDS011;49000;50.698;13.322;2023-07-24T07:11:15;45.90;;;21.85;;
62903;SDS011;49000;50.698;13.322;2023-07-24T07:13:40;7.43;;;5.40;;
62903;SDS011;49000;50.698;13.322;2023-07-24T07:16:06;8.43;;;5.05;;
62903;SDS011;49000;50.698;13.322;2023-07-24T07:18:31;7.38;;;5.22;;
62903;SDS011;49000;50.698;13.322;2023-07-24T07:20:57;6.68;;;5.07;;
62903;SDS011;49000;50.698;13.322;2023-07-24T07:23:22;7.22;;;5.70;;
62903;SDS011;49000;50.698;13.322;2023-07-24T07:25:47;6.82;;;5.50;;
62903;SDS011;49000;50.698;13.322;2023-07-24T07:28:14;8.93;;;6.20;;
62903;SDS011;49000;50.698;13.322;2023-07-24T07:30:41;9.25;;;5.80;;
62903;SDS011;49000;50.698;13.322;2023-07-24T07:33:06;8.82;;;6.03;;
62903;SDS011;49000;50.698;13.322;2023-07-24T07:35:32;7.45;;;6.50;;
62903;SDS011;49000;50.698;13.322;2023-07-24T07:37:58;7.80;;;5.85;;
62903;SDS011;49000;50.698;13.322;2023-07-24T07:40:25;14.13;;;7.88;;
62903;SDS011;49000;50.698;13.322;2023-07-24T07:42:52;8.55;;;6.40;;
62903;SDS011;49000;50.698;13.322;2023-07-24T07:45:18;11.82;;;7.45;;
62903;SDS011;49000;50.698;13.322;2023-07-24T07:47:44;10.00;;;6.55;;
62903;SDS011;49000;50.698;13.322;2023-07-24T07:50:09;12.25;;;6.95;;
62903;SDS011;49000;50.698;13.322;2023-07-24T07:52:35;8.75;;;6.57;;
62903;SDS011;49000;50.698;13.322;2023-07-24T07:55:01;15.10;;;8.43;;
62903;SDS011;49000;50.698;13.322;2023-07-24T07:57:26;9.23;;;6.63;;
62903;SDS011;49000;50.698;13.322;2023-07-24T07:59:52;8.35;;;6.28;;
62903;SDS011;49000;50.698;13.322;2023-07-24T08:02:18;11.15;;;7.00;;
62903;SDS011;49000;50.698;13.322;2023-07-24T08:04:43;8.85;;;6.32;;
62903;SDS011;49000;50.698;13.322;2023-07-24T08:07:09;9.70;;;6.75;;
62903;SDS011;49000;50.698;13.322;2023-07-24T08:09:34;9.30;;;6.80;;
62903;SDS011;49000;50.698;13.322;2023-07-24T08:12:03;11.20;;;6.47;;
62903;SDS011;49000;50.698;13.322;2023-07-24T08:14:28;43.55;;;16.45;;
62903;SDS011;49000;50.698;13.322;2023-07-24T08:16:54;9.93;;;6.78;;
62903;SDS011;49000;50.698;13.322;2023-07-24T08:19:20;9.45;;;5.35;;
62903;SDS011;49000;50.698;13.322;2023-07-24T08:21:46;7.55;;;5.05;;
62903;SDS011;49000;50.698;13.322;2023-07-24T08:24:12;5.88;;;4.75;;
62903;SDS011;49000;50.698;13.322;2023-07-24T08:26:37;7.13;;;4.93;;
62903;SDS011;49000;50.698;13.322;2023-07-24T08:29:03;5.70;;;4.40;;
62903;SDS011;49000;50.698;13.322;2023-07-24T08:31:29;6.35;;;4.65;;
62903;SDS011;49000;50.698;13.322;2023-07-24T08:33:55;6.60;;;4.57;;
62903;SDS011;49000;50.698;13.322;2023-07-24T08:36:20;5.50;;;4.55;;
62903;SDS011;49000;50.698;13.322;2023-07-24T08:38:46;5.15;;;4.07;;
62903;SDS011;49000;50.698;13.322;2023-07-24T08:41:12;5.03;;;4.10;;
62903;SDS011;49000;50.698;13.322;2023-07-24T08:43:39;5.95;;;4.20;;
62903;SDS011;49000;50.698;13.322;2023-07-24T08:46:06;6.53;;;4.47;;
62903;SDS011;49000;50.698;13.322;2023-07-24T08:48:33;5.68;;;4.63;;
62903;SDS011;49000;50.698;13.322;2023-07-24T08:51:03;6.03;;;4.60;;
62903;SDS011;49000;50.698;13.322;2023-07-24T08:53:29;5.72;;;3.95;;
62903;SDS011;49000;50.698;13.322;2023-07-24T08:55:56;7.85;;;5.15;;
62903;SDS011;49000;50.698;13.322;2023-07-24T08:58:21;6.63;;;4.75;;
62903;SDS011;49000;50.698;13.322;2023-07-24T09:00:47;7.07;;;5.20;;
62903;SDS011;49000;50.698;13.322;2023-07-24T09:03:13;6.97;;;5.35;;
62903;SDS011;49000;50.698;13.322;2023-07-24T09:05:38;6.43;;;5.07;;
62903;SDS011;49000;50.698;13.322;2023-07-24T09:08:04;5.90;;;5.05;;
62903;SDS011;49000;50.698;13.322;2023-07-24T09:10:29;7.18;;;5.18;;
62903;SDS011;49000;50.698;13.322;2023-07-24T09:12:55;9.93;;;5.28;;
62903;SDS011;49000;50.698;13.322;2023-07-24T09:15:21;7.63;;;5.50;;
62903;SDS011;49000;50.698;13.322;2023-07-24T09:17:50;7.63;;;5.60;;
62903;SDS011;49000;50.698;13.322;2023-07-24T09:20:16;11.82;;;5.95;;
62903;SDS011;49000;50.698;13.322;2023-07-24T09:22:52;7.53;;;5.80;;
62903;SDS011;49000;50.698;13.322;2023-07-24T09:25:19;8.70;;;5.90;;
62903;SDS011;49000;50.698;13.322;2023-07-24T09:27:55;10.50;;;5.93;;
62903;SDS011;49000;50.698;13.322;2023-07-24T09:30:20;7.72;;;5.72;;
62903;SDS011;49000;50.698;13.322;2023-07-24T09:32:51;8.75;;;6.03;;
62903;SDS011;49000;50.698;13.322;2023-07-24T09:35:20;7.00;;;5.43;;
62903;SDS011;49000;50.698;13.322;2023-07-24T09:38:00;7.35;;;5.65;;
62903;SDS011;49000;50.698;13.322;2023-07-24T09:40:27;7.35;;;5.78;;
62903;SDS011;49000;50.698;13.322;2023-07-24T09:42:52;7.13;;;5.32;;
62903;SDS011;49000;50.698;13.322;2023-07-24T09:45:18;7.40;;;5.78;;
62903;SDS011;49000;50.698;13.322;2023-07-24T09:47:43;8.10;;;5.72;;
62903;SDS011;49000;50.698;13.322;2023-07-24T09:50:10;7.68;;;5.22;;
62903;SDS011;49000;50.698;13.322;2023-07-24T09:52:36;8.60;;;5.50;;
62903;SDS011;49000;50.698;13.322;2023-07-24T09:57:46;7.13;;;5.43;;
62903;SDS011;49000;50.698;13.322;2023-07-24T10:00:13;8.18;;;5.88;;
62903;SDS011;49000;50.698;13.322;2023-07-24T10:02:39;9.65;;;5.97;;
62903;SDS011;49000;50.698;13.322;2023-07-24T10:05:06;10.55;;;6.25;;
62903;SDS011;49000;50.698;13.322;2023-07-24T10:07:32;7.95;;;6.00;;
62903;SDS011;49000;50.698;13.322;2023-07-24T10:09:57;8.52;;;6.22;;
62903;SDS011;49000;50.698;13.322;2023-07-24T10:12:23;8.25;;;5.90;;
62903;SDS011;49000;50.698;13.322;2023-07-24T10:14:52;6.72;;;5.35;;
62903;SDS011;49000;50.698;13.322;2023-07-24T10:17:38;8.65;;;5.72;;
62903;SDS011;49000;50.698;13.322;2023-07-24T10:20:05;8.43;;;5.85;;
62903;SDS011;49000;50.698;13.322;2023-07-24T10:22:32;7.70;;;5.82;;
62903;SDS011;49000;50.698;13.322;2023-07-24T10:24:58;6.88;;;5.63;;
62903;SDS011;49000;50.698;13.322;2023-07-24T10:27:24;8.00;;;6.10;;
62903;SDS011;49000;50.698;13.322;2023-07-24T10:30:00;7.82;;;5.93;;
62903;SDS011;49000;50.698;13.322;2023-07-24T10:32:27;8.52;;;6.28;;
62903;SDS011;49000;50.698;13.322;2023-07-24T10:34:57;6.93;;;5.15;;
62903;SDS011;49000;50.698;13.322;2023-07-24T10:37:34;8.20;;;5.85;;
62903;SDS011;49000;50.698;13.322;2023-07-24T10:40:03;6.85;;;5.55;;
62903;SDS011;49000;50.698;13.322;2023-07-24T10:42:30;7.95;;;5.28;;
62903;SDS011;49000;50.698;13.322;2023-07-24T10:45:17;7.43;;;6.18;;
62903;SDS011;49000;50.698;13.322;2023-07-24T10:47:42;10.77;;;5.88;;
62903;SDS011;49000;50.698;13.322;2023-07-24T10:50:08;8.52;;;6.35;;
62903;SDS011;49000;50.698;13.322;2023-07-24T10:52:33;7.15;;;5.57;;
62903;SDS011;49000;50.698;13.322;2023-07-24T10:55:05;8.68;;;5.68;;
62903;SDS011;49000;50.698;13.322;2023-07-24T10:57:31;8.90;;;6.30;;
62903;SDS011;49000;50.698;13.322;2023-07-24T10:59:57;7.53;;;6.00;;
62903;SDS011;49000;50.698;13.322;2023-07-24T11:02:23;6.97;;;5.63;;
62903;SDS011;49000;50.698;13.322;2023-07-24T11:04:49;7.63;;;6.03;;
62903;SDS011;49000;50.698;13.322;2023-07-24T11:07:15;8.60;;;5.95;;
62903;SDS011;49000;50.698;13.322;2023-07-24T11:09:40;7.57;;;5.30;;
62903;SDS011;49000;50.698;13.322;2023-07-24T11:12:10;9.13;;;6.13;;
62903;SDS011;49000;50.698;13.322;2023-07-24T11:14:49;8.48;;;5.53;;
62903;SDS011;49000;50.698;13.322;2023-07-24T11:17:16;7.85;;;5.72;;
62903;SDS011;49000;50.698;13.322;2023-07-24T11:19:41;8.32;;;6.53;;
62903;SDS011;49000;50.698;13.322;2023-07-24T11:22:07;7.90;;;6.22;;
62903;SDS011;49000;50.698;13.322;2023-07-24T11:24:33;7.40;;;6.18;;
62903;SDS011;49000;50.698;13.322;2023-07-24T11:27:16;8.77;;;7.00;;
62903;SDS011;49000;50.698;13.322;2023-07-24T11:29:48;8.43;;;6.75;;
62903;SDS011;49000;50.698;13.322;2023-07-24T11:32:18;9.52;;;6.97;;
62903;SDS011;49000;50.698;13.322;2023-07-24T11:34:44;10.57;;;7.30;;
62903;SDS011;49000;50.698;13.322;2023-07-24T11:37:12;9.63;;;6.80;;
62903;SDS011;49000;50.698;13.322;2023-07-24T11:39:38;9.07;;;6.78;;
62903;SDS011;49000;50.698;13.322;2023-07-24T11:42:03;9.93;;;7.28;;
62903;SDS011;49000;50.698;13.322;2023-07-24T11:44:29;9.60;;;7.00;;
62903;SDS011;49000;50.698;13.322;2023-07-24T11:47:01;9.38;;;7.35;;
62903;SDS011;49000;50.698;13.322;2023-07-24T11:49:28;9.40;;;7.32;;
62903;SDS011;49000;50.698;13.322;2023-07-24T11:52:00;10.18;;;7.20;;
62903;SDS011;49000;50.698;13.322;2023-07-24T11:54:30;8.05;;;6.53;;
62903;SDS011;49000;50.698;13.322;2023-07-24T11:56:55;9.13;;;6.30;;
62903;SDS011;49000;50.698;13.322;2023-07-24T11:59:21;10.77;;;6.95;;
62903;SDS011;49000;50.698;13.322;2023-07-24T12:01:47;9.23;;;7.00;;
62903;SDS011;49000;50.698;13.322;2023-07-24T12:04:13;8.88;;;6.75;;
62903;SDS011;49000;50.698;13.322;2023-07-24T12:06:40;9.32;;;7.03;;
62903;SDS011;49000;50.698;13.322;2023-07-24T12:09:05;10.32;;;6.85;;
62903;SDS011;49000;50.698;13.322;2023-07-24T12:11:32;9.20;;;7.20;;
62903;SDS011;49000;50.698;13.322;2023-07-24T12:13:58;8.48;;;6.57;;
62903;SDS011;49000;50.698;13.322;2023-07-24T12:16:23;8.77;;;6.25;;
62903;SDS011;49000;50.698;13.322;2023-07-24T12:18:49;8.63;;;6.72;;
62903;SDS011;49000;50.698;13.322;2023-07-24T12:21:14;8.48;;;6.43;;
62903;SDS011;49000;50.698;13.322;2023-07-24T12:23:40;9.20;;;6.57;;
62903;SDS011;49000;50.698;13.322;2023-07-24T12:26:05;8.18;;;5.70;;
62903;SDS011;49000;50.698;13.322;2023-07-24T12:28:32;10.68;;;6.15;;
62903;SDS011;49000;50.698;13.322;2023-07-24T12:30:57;10.68;;;7.10;;
62903;SDS011;49000;50.698;13.322;2023-07-24T12:41:46;9.57;;;5.38;;
62903;SDS011;49000;50.698;13.322;2023-07-24T12:44:11;12.57;;;5.60;;
62903;SDS011;49000;50.698;13.322;2023-07-24T12:46:37;9.05;;;5.53;;
62903;SDS011;49000;50.698;13.322;2023-07-24T12:49:02;7.70;;;4.93;;
62903;SDS011;49000;50.698;13.322;2023-07-24T12:51:28;6.45;;;4.88;;
62903;SDS011;49000;50.698;13.322;2023-07-24T12:53:53;8.32;;;4.93;;
62903;SDS011;49000;50.698;13.322;2023-07-24T12:56:18;7.38;;;5.30;;
62903;SDS011;49000;50.698;13.322;2023-07-24T12:58:44;6.53;;;4.72;;
62903;SDS011;49000;50.698;13.322;2023-07-24T13:01:09;5.63;;;4.40;;
62903;SDS011;49000;50.698;13.322;2023-07-24T13:03:35;6.47;;;4.18;;
62903;SDS011;49000;50.698;13.322;2023-07-24T13:06:00;4.47;;;3.58;;
62903;SDS011;49000;50.698;13.322;2023-07-24T13:08:26;4.78;;;3.85;;
62903;SDS011;49000;50.698;13.322;2023-07-24T13:10:51;5.18;;;3.55;;
62903;SDS011;49000;50.698;13.322;2023-07-24T13:13:17;4.82;;;3.67;;
62903;SDS011;49000;50.698;13.322;2023-07-24T13:15:42;3.85;;;3.13;;
62903;SDS011;49000;50.698;13.322;2023-07-24T13:18:08;4.95;;;2.65;;
62903;SDS011;49000;50.698;13.322;2023-07-24T13:20:34;3.97;;;3.05;;
62903;SDS011;49000;50.698;13.322;2023-07-24T13:22:59;4.70;;;2.75;;
62903;SDS011;49000;50.698;13.322;2023-07-24T13:25:25;4.13;;;3.00;;
62903;SDS011;49000;50.698;13.322;2023-07-24T13:27:50;4.28;;;3.17;;
62903;SDS011;49000;50.698;13.322;2023-07-24T13:30:17;3.38;;;2.55;;
62903;SDS011;49000;50.698;13.322;2023-07-24T13:32:43;3.42;;;2.50;;
62903;SDS011;49000;50.698;13.322;2023-07-24T13:35:08;4.03;;;2.40;;
62903;SDS011;49000;50.698;13.322;2023-07-24T13:37:34;3.33;;;2.50;;
62903;SDS011;49000;50.698;13.322;2023-07-24T13:40:00;3.45;;;2.75;;
62903;SDS011;49000;50.698;13.322;2023-07-24T13:42:25;2.85;;;2.55;;
62903;SDS011;49000;50.698;13.322;2023-07-24T13:44:50;3.67;;;2.33;;
62903;SDS011;49000;50.698;13.322;2023-07-24T13:47:16;3.15;;;2.55;;
62903;SDS011;49000;50.698;13.322;2023-07-24T13:49:42;2.55;;;2.30;;
62903;SDS011;49000;50.698;13.322;2023-07-24T13:52:07;3.47;;;2.50;;
62903;SDS011;49000;50.698;13.322;2023-07-24T13:54:33;3.92;;;3.05;;
62903;SDS011;49000;50.698;13.322;2023-07-24T13:56:58;5.50;;;3.08;;
62903;SDS011;49000;50.698;13.322;2023-07-24T13:59:24;4.45;;;3.30;;
62903;SDS011;49000;50.698;13.322;2023-07-24T14:01:49;3.28;;;2.72;;
62903;SDS011;49000;50.698;13.322;2023-07-24T14:04:15;4.72;;;3.30;;
62903;SDS011;49000;50.698;13.322;2023-07-24T14:06:40;5.03;;;3.50;;
62903;SDS011;49000;50.698;13.322;2023-07-24T14:09:06;5.82;;;3.65;;
62903;SDS011;49000;50.698;13.322;2023-07-24T14:11:32;5.10;;;4.15;;
62903;SDS011;49000;50.698;13.322;2023-07-24T14:13:57;6.47;;;4.65;;
62903;SDS011;49000;50.698;13.322;2023-07-24T14:16:22;7.38;;;4.68;;
62903;SDS011;49000;50.698;13.322;2023-07-24T14:18:48;6.05;;;4.45;;
62903;SDS011;49000;50.698;13.322;2023-07-24T14:21:13;6.93;;;5.03;;
62903;SDS011;49000;50.698;13.322;2023-07-24T14:23:39;5.68;;;5.07;;
62903;SDS011;49000;50.698;13.322;2023-07-24T14:26:04;5.68;;;4.90;;
62903;SDS011;49000;50.698;13.322;2023-07-24T14:28:30;6.15;;;5.05;;
62903;SDS011;49000;50.698;13.322;2023-07-24T14:30:56;8.35;;;5.45;;
62903;SDS011;49000;50.698;13.322;2023-07-24T14:33:21;7.57;;;6.03;;
62903;SDS011;49000;50.698;13.322;2023-07-24T14:35:47;8.10;;;5.85;;
62903;SDS011;49000;50.698;13.322;2023-07-24T14:38:12;6.30;;;5.28;;
62903;SDS011;49000;50.698;13.322;2023-07-24T14:40:38;7.03;;;5.28;;